Time;durP1;ratioP1;P1;durP2;ratioP2;P2;SDS_P1;SDS_P2;PMS_P1;PMS_P2;Temp;Humidity;BMP_temperature;BMP_pressure;BME280_temperature;BME280_humidity;BME280_pressure;Samples;Min_cycle;Max_cycle;Signal;HPM_P1;HPM_P2
2023/07/09 00:02:27;;;;;;;6.30;5.70;;;;;;;12.23;100.00;97692.98;110364;1238;70592;-65
2023/07/09 00:04:58;;;;;;;7.70;5.60;;;;;;;12.16;100.00;97699.29;110477;1238;68976;-65
2023/07/09 00:07:35;;;;;;;6.60;5.70;;;;;;;12.05;100.00;97700.85;110413;1241;68565;-66
2023/07/09 00:10:16;;;;;;;6.50;5.10;;;;;;;11.97;100.00;97704.39;110533;1241;58892;-66
2023/07/09 00:12:48;;;;;;;7.40;5.50;;;;;;;11.92;100.00;97702.48;110506;1241;58814;-66
2023/07/09 00:15:19;;;;;;;6.60;4.90;;;;;;;11.89;100.00;97706.05;110487;1241;70544;-66
2023/07/09 00:17:50;;;;;;;7.20;4.50;;;;;;;11.85;100.00;97706.98;110385;1241;68526;-66
2023/07/09 00:20:19;;;;;;;6.30;5.30;;;;;;;11.82;100.00;97708.96;110414;1241;69298;-65
2023/07/09 00:22:51;;;;;;;7.10;5.20;;;;;;;11.78;100.00;97709.25;110427;1240;58888;-66
2023/07/09 00:25:24;;;;;;;6.10;5.50;;;;;;;11.74;100.00;97709.37;110582;1241;59281;-64
2023/07/09 00:27:54;;;;;;;7.20;6.30;;;;;;;11.72;100.00;97708.80;110480;1245;69658;-64
2023/07/09 00:30:24;;;;;;;7.90;6.20;;;;;;;11.70;100.00;97707.48;110505;1238;68322;-64
2023/07/09 00:32:54;;;;;;;7.10;6.40;;;;;;;11.70;100.00;97709.59;110466;1238;68379;-64
2023/07/09 00:35:26;;;;;;;11.10;6.90;;;;;;;11.69;100.00;97707.21;110273;1242;58933;-66
2023/07/09 00:38:00;;;;;;;8.80;6.30;;;;;;;11.67;100.00;97711.02;110414;1240;58928;-67
2023/07/09 00:40:32;;;;;;;7.60;6.80;;;;;;;11.65;100.00;97709.95;110468;1238;70612;-65
2023/07/09 00:43:14;;;;;;;7.30;6.50;;;;;;;11.62;100.00;97710.33;110245;1242;69158;-65
2023/07/09 00:45:45;;;;;;;8.00;6.50;;;;;;;11.61;100.00;97709.63;110616;1242;68254;-65
2023/07/09 00:48:17;;;;;;;7.20;5.80;;;;;;;11.57;100.00;97711.24;110584;1241;58886;-65
2023/07/09 00:50:51;;;;;;;9.20;6.60;;;;;;;11.55;100.00;97711.26;110584;1238;58998;-65
2023/07/09 00:53:29;;;;;;;7.10;5.60;;;;;;;11.53;100.00;97715.56;110583;1238;70935;-65
2023/07/09 00:56:11;;;;;;;7.70;6.50;;;;;;;11.52;100.00;97718.48;110558;1238;68599;-65
2023/07/09 00:58:47;;;;;;;7.10;5.90;;;;;;;11.44;100.00;97712.67;110605;1238;69281;-65
2023/07/09 01:01:19;;;;;;;6.30;5.30;;;;;;;11.38;100.00;97709.10;110609;1238;58941;-65
2023/07/09 01:03:59;;;;;;;6.70;6.00;;;;;;;11.34;100.00;97709.73;110616;1238;58879;-65
2023/07/09 01:06:46;;;;;;;7.50;6.70;;;;;;;11.32;100.00;97712.02;110630;1238;70429;-66
2023/07/09 01:09:21;;;;;;;8.10;7.10;;;;;;;11.31;100.00;97713.27;110627;1241;69250;-65
2023/07/09 01:11:56;;;;;;;10.00;7.30;;;;;;;11.30;100.00;97713.90;110237;1240;68704;-65
2023/07/09 01:14:28;;;;;;;6.90;6.20;;;;;;;11.29;100.00;97713.14;110571;1238;58868;-66
2023/07/09 01:17:02;;;;;;;8.70;7.00;;;;;;;11.27;100.00;97711.68;110419;1241;58915;-65
2023/07/09 01:19:42;;;;;;;10.20;8.70;;;;;;;11.23;100.00;97713.20;110585;1243;70617;-64
2023/07/09 01:22:12;;;;;;;;;;;;;;;11.19;100.00;97717.30;110589;1240;69895;-64
2023/07/09 01:24:54;;;;;;;8.30;6.70;;;;;;;11.15;100.00;97720.55;110565;1240;68451;-64
2023/07/09 01:27:27;;;;;;;10.90;8.80;;;;;;;11.11;100.00;97718.18;110517;1242;58972;-64
2023/07/09 01:30:00;;;;;;;11.90;9.50;;;;;;;11.12;100.00;97717.05;110582;1239;58932;-66
2023/07/09 01:32:38;;;;;;;8.80;7.70;;;;;;;11.15;100.00;97714.59;110235;1242;70086;-65
2023/07/09 01:35:07;;;;;;;8.10;6.50;;;;;;;11.16;100.00;97715.44;110244;1241;68346;-64
2023/07/09 01:37:38;;;;;;;8.40;7.30;;;;;;;11.12;100.00;97715.47;110603;1240;68596;-64
2023/07/09 01:40:16;;;;;;;8.50;6.80;;;;;;;11.09;100.00;97718.67;110325;1242;58886;-65
2023/07/09 01:43:01;;;;;;;9.80;8.10;;;;;;;11.04;100.00;97723.05;110603;1240;58821;-65
2023/07/09 01:45:37;;;;;;;8.90;7.30;;;;;;;10.98;100.00;97719.48;110518;1238;70473;-64
2023/07/09 01:48:15;;;;;;;8.50;6.90;;;;;;;10.93;100.00;97720.54;110221;1242;69199;-65
2023/07/09 01:50:52;;;;;;;6.60;6.00;;;;;;;10.86;100.00;97720.29;110443;1238;69396;-66
2023/07/09 01:53:26;;;;;;;8.50;6.50;;;;;;;10.80;100.00;97719.47;110397;1241;58945;-64
2023/07/09 01:55:57;;;;;;;9.10;6.60;;;;;;;10.77;100.00;97722.48;110275;1242;58815;-64
2023/07/09 01:58:31;;;;;;;8.50;6.60;;;;;;;10.75;100.00;97727.36;110367;1241;68821;-64
2023/07/09 02:01:06;;;;;;;6.80;6.00;;;;;;;10.72;100.00;97730.66;110274;1242;69037;-64
2023/07/09 02:03:42;;;;;;;9.10;6.50;;;;;;;10.69;100.00;97737.46;110484;1242;69207;-64
2023/07/09 02:06:12;;;;;;;8.50;6.20;;;;;;;10.68;100.00;97741.05;110265;1242;58931;-65
2023/07/09 02:08:48;;;;;;;7.60;5.70;;;;;;;10.65;100.00;97741.40;110577;1238;58923;-64
2023/07/09 02:11:26;;;;;;;7.90;6.00;;;;;;;10.63;100.00;97741.92;110637;1241;70725;-64
2023/07/09 02:14:02;;;;;;;8.60;7.70;;;;;;;10.60;100.00;97745.42;110613;1240;68534;-64
2023/07/09 02:16:39;;;;;;;7.40;6.20;;;;;;;10.55;100.00;97751.85;110285;1242;69418;-64
2023/07/09 02:19:15;;;;;;;7.60;6.50;;;;;;;10.51;100.00;97757.02;110553;1241;58857;-64
2023/07/09 02:21:52;;;;;;;7.60;6.70;;;;;;;10.48;100.00;97757.39;110649;1240;58861;-64
2023/07/09 02:24:27;;;;;;;8.20;5.90;;;;;;;10.44;100.00;97757.63;110593;1241;70582;-64
2023/07/09 02:27:03;;;;;;;9.40;6.60;;;;;;;10.42;100.00;97760.05;110292;1241;69310;-64
2023/07/09 02:29:38;;;;;;;7.00;6.30;;;;;;;10.40;100.00;97761.56;110563;1238;69339;-64
2023/07/09 02:32:21;;;;;;;8.00;6.50;;;;;;;10.38;100.00;97763.42;110603;1240;58978;-64
2023/07/09 02:34:57;;;;;;;9.60;6.30;;;;;;;10.39;100.00;97766.70;110217;1242;58881;-64
2023/07/09 02:37:27;;;;;;;8.20;6.70;;;;;;;10.38;100.00;97766.91;110267;1242;70572;-65
2023/07/09 02:39:56;;;;;;;8.80;6.90;;;;;;;10.38;100.00;97770.06;110525;1238;69138;-65
2023/07/09 02:42:27;;;;;;;6.90;6.20;;;;;;;10.37;100.00;97774.86;110288;1242;68690;-65
2023/07/09 02:45:04;;;;;;;6.90;6.20;;;;;;;10.35;100.00;97775.87;110433;1241;58943;-65
2023/07/09 02:47:42;;;;;;;6.80;6.10;;;;;;;10.33;100.00;97778.64;110642;1238;58891;-65
2023/07/09 02:50:16;;;;;;;6.60;4.80;;;;;;;10.31;100.00;97779.62;110272;1242;70500;-65
2023/07/09 02:52:46;;;;;;;7.00;5.70;;;;;;;10.30;100.00;97781.08;110274;1239;69127;-65
2023/07/09 02:55:20;;;;;;;9.60;6.60;;;;;;;10.28;100.00;97779.98;110540;1241;68293;-65
2023/07/09 02:57:50;;;;;;;9.60;7.40;;;;;;;10.25;100.00;97782.63;110588;1240;58876;-65
2023/07/09 03:00:23;;;;;;;9.70;7.00;;;;;;;10.21;100.00;97782.33;110629;1241;58875;-65
2023/07/09 03:02:57;;;;;;;8.10;7.20;;;;;;;10.18;100.00;97783.52;110312;1242;69641;-65
2023/07/09 03:05:30;;;;;;;8.70;7.10;;;;;;;10.14;100.00;97780.30;110599;1240;68580;-65
2023/07/09 03:08:00;;;;;;;5.80;5.10;;;;;;;10.15;100.00;97777.32;110626;1238;69019;-65
2023/07/09 03:10:30;;;;;;;6.90;5.40;;;;;;;10.14;100.00;97776.10;110599;1243;58946;-65
2023/07/09 03:13:00;;;;;;;9.10;7.20;;;;;;;10.15;100.00;97780.04;110256;1242;58881;-65
2023/07/09 03:15:28;;;;;;;8.30;6.00;;;;;;;10.17;100.00;97782.39;110545;1241;69731;-65
2023/07/09 03:17:57;;;;;;;8.00;5.80;;;;;;;10.16;100.00;97786.79;110580;1248;69857;-65
2023/07/09 03:20:25;;;;;;;6.30;5.20;;;;;;;10.18;100.00;97789.62;110607;1241;68331;-65
2023/07/09 03:22:54;;;;;;;6.50;5.20;;;;;;;10.20;100.00;97792.65;110618;1238;58943;-65
2023/07/09 03:25:25;;;;;;;5.90;5.00;;;;;;;10.23;100.00;97794.92;110582;1241;58859;-65
2023/07/09 03:27:54;;;;;;;;;;;;;;;10.25;100.00;97791.13;110247;1241;69741;-65
2023/07/09 03:30:24;;;;;;;5.80;4.90;;;;;;;10.27;100.00;97791.21;110617;1242;69229;-65
2023/07/09 03:32:54;;;;;;;8.60;5.80;;;;;;;10.30;100.00;97793.92;110624;1238;69393;-65
2023/07/09 03:35:28;;;;;;;8.10;5.10;;;;;;;10.34;100.00;97795.80;110299;1242;58900;-65
2023/07/09 03:38:00;;;;;;;7.00;5.70;;;;;;;10.38;100.00;97798.14;110569;1241;58872;-65
2023/07/09 03:40:31;;;;;;;7.40;6.60;;;;;;;10.44;100.00;97800.52;110523;1241;70624;-65
2023/07/09 03:43:01;;;;;;;6.60;5.60;;;;;;;10.51;100.00;97804.45;110472;1241;69230;-65
2023/07/09 03:45:31;;;;;;;7.90;6.30;;;;;;;10.56;100.00;97807.77;110561;1241;68679;-65
2023/07/09 03:48:02;;;;;;;7.30;6.30;;;;;;;10.61;100.00;97803.40;110545;1238;58869;-64
2023/07/09 03:50:32;;;;;;;8.60;7.60;;;;;;;10.68;100.00;97800.80;110567;1238;58927;-64
2023/07/09 03:53:01;;;;;;;8.50;6.80;;;;;;;10.75;100.00;97806.13;110572;1241;70603;-64
2023/07/09 03:55:29;;;;;;;7.00;6.30;;;;;;;10.83;100.00;97803.52;110644;1241;69184;-64
2023/07/09 03:57:58;;;;;;;7.80;7.00;;;;;;;10.90;100.00;97801.98;110611;1240;68835;-64
2023/07/09 04:00:26;;;;;;;9.40;7.50;;;;;;;10.98;100.00;97803.52;110580;1241;58934;-64
2023/07/09 04:02:59;;;;;;;9.50;6.40;;;;;;;11.07;100.00;97808.68;110600;1239;58836;-64
2023/07/09 04:05:28;;;;;;;8.00;6.60;;;;;;;11.14;100.00;97811.45;110566;1238;70780;-64
2023/07/09 04:07:57;;;;;;;7.80;6.20;;;;;;;11.21;100.00;97812.94;110503;1241;69275;-64
2023/07/09 04:10:25;;;;;;;6.20;5.20;;;;;;;11.30;100.00;97812.83;110522;1241;69943;-64
2023/07/09 04:12:53;;;;;;;7.40;5.50;;;;;;;11.39;100.00;97813.20;110134;1248;617186;-64
2023/07/09 04:15:22;;;;;;;6.00;4.80;;;;;;;11.52;100.00;97817.93;110615;1248;58876;-64
2023/07/09 04:17:51;;;;;;;7.90;6.30;;;;;;;11.64;100.00;97817.80;110593;1238;70572;-64
2023/07/09 04:20:20;;;;;;;6.90;6.00;;;;;;;11.76;100.00;97817.27;110469;1239;69174;-64
2023/07/09 04:22:50;;;;;;;8.00;6.00;;;;;;;11.89;100.00;97820.02;110476;1241;68540;-65
2023/07/09 04:25:19;;;;;;;7.00;6.20;;;;;;;12.03;100.00;97818.03;110480;1238;58940;-64
2023/07/09 04:27:50;;;;;;;6.90;5.60;;;;;;;12.15;100.00;97821.30;110432;1242;58860;-64
2023/07/09 04:30:18;;;;;;;6.20;5.30;;;;;;;12.26;100.00;97821.72;110500;1238;70648;-64
2023/07/09 04:32:47;;;;;;;6.70;5.90;;;;;;;12.38;100.00;97818.08;110621;1238;68972;-64
2023/07/09 04:35:16;;;;;;;7.70;6.10;;;;;;;12.42;100.00;97826.30;110584;1241;69135;-65
2023/07/09 04:37:45;;;;;;;5.90;5.30;;;;;;;12.48;100.00;97824.96;110465;1238;58935;-64
2023/07/09 04:40:19;;;;;;;5.70;4.80;;;;;;;12.56;100.00;97821.77;110550;1241;58937;-66
2023/07/09 04:42:47;;;;;;;5.60;4.50;;;;;;;12.71;100.00;97826.58;110518;1240;69786;-64
2023/07/09 04:45:15;;;;;;;5.10;4.50;;;;;;;12.92;100.00;97826.08;110410;1242;69173;-64
2023/07/09 04:47:44;;;;;;;5.40;4.90;;;;;;;13.14;100.00;97828.23;110614;1241;68608;-64
2023/07/09 04:50:14;;;;;;;6.40;4.80;;;;;;;13.12;100.00;97829.63;110619;1242;58895;-64
2023/07/09 04:52:42;;;;;;;5.70;4.50;;;;;;;13.18;100.00;97829.52;110544;1243;58883;-64
2023/07/09 04:55:10;;;;;;;5.70;4.30;;;;;;;13.29;100.00;97833.78;110600;1241;70058;-64
2023/07/09 04:57:37;;;;;;;5.90;4.80;;;;;;;13.43;100.00;97823.59;110543;1243;69845;-64
2023/07/09 05:00:07;;;;;;;6.60;4.50;;;;;;;13.61;100.00;97823.61;110585;1242;69281;-64
2023/07/09 05:02:35;;;;;;;7.10;4.60;;;;;;;13.76;100.00;97825.55;110598;1241;58859;-64
2023/07/09 05:05:03;;;;;;;4.60;4.10;;;;;;;13.90;100.00;97823.25;110645;1242;58889;-64
2023/07/09 05:07:33;;;;;;;4.80;4.30;;;;;;;13.96;100.00;97828.02;110646;1240;70589;-64
2023/07/09 05:10:02;;;;;;;5.40;4.60;;;;;;;14.07;100.00;97824.27;110626;1241;69167;-64
2023/07/09 05:12:31;;;;;;;7.60;4.50;;;;;;;14.32;100.00;97826.47;110567;1238;68604;-64
2023/07/09 05:14:58;;;;;;;6.20;4.40;;;;;;;14.63;100.00;97828.74;110630;1238;58893;-65
2023/07/09 05:17:27;;;;;;;5.30;4.00;;;;;;;15.08;98.43;97826.35;110594;1241;58828;-65
2023/07/09 05:19:55;;;;;;;4.00;3.30;;;;;;;15.59;98.23;97823.38;110626;1242;71157;-65
2023/07/09 05:22:24;;;;;;;3.60;3.20;;;;;;;16.02;98.80;97824.39;110617;1243;69824;-65
2023/07/09 05:24:52;;;;;;;5.80;3.50;;;;;;;16.53;92.39;97820.00;110624;1240;68427;-65
2023/07/09 05:27:20;;;;;;;3.40;3.10;;;;;;;17.13;91.74;97813.48;110618;1241;58933;-64
2023/07/09 05:29:48;;;;;;;6.40;3.30;;;;;;;17.48;81.41;97813.71;110601;1241;59233;-64
2023/07/09 05:32:18;;;;;;;4.20;3.30;;;;;;;17.80;80.82;97812.73;110618;1243;71255;-66
2023/07/09 05:34:46;;;;;;;4.60;3.40;;;;;;;18.00;79.70;97811.17;110639;1240;68478;-64
2023/07/09 05:37:14;;;;;;;4.20;3.50;;;;;;;17.96;79.18;97811.76;110527;1238;69251;-64
2023/07/09 05:39:42;;;;;;;4.10;3.40;;;;;;;17.88;78.18;97813.92;110584;1242;58870;-64
2023/07/09 05:42:10;;;;;;;4.90;2.90;;;;;;;17.81;77.80;97813.73;110584;1241;58859;-63
2023/07/09 05:44:38;;;;;;;3.90;3.20;;;;;;;17.78;78.46;97813.80;110386;1238;70569;-66
2023/07/09 05:47:07;;;;;;;3.70;2.90;;;;;;;17.85;78.92;97812.35;110541;1240;69835;-65
2023/07/09 05:49:35;;;;;;;4.10;2.80;;;;;;;17.90;77.82;97809.73;110550;1239;68421;-65
2023/07/09 05:52:03;;;;;;;4.30;3.10;;;;;;;17.78;76.34;97810.70;110595;1242;58922;-63
2023/07/09 05:54:31;;;;;;;5.10;3.50;;;;;;;17.73;76.41;97809.00;110629;1241;58869;-65
2023/07/09 05:56:59;;;;;;;4.20;3.10;;;;;;;17.74;77.87;97807.30;110571;1241;71151;-64
2023/07/09 05:59:27;;;;;;;4.10;3.20;;;;;;;17.78;78.27;97804.65;110577;1239;69875;-66
2023/07/09 06:01:54;;;;;;;3.70;3.30;;;;;;;17.88;78.03;97805.90;110483;1241;69747;-65
2023/07/09 06:04:22;;;;;;;4.20;3.40;;;;;;;17.93;77.21;97805.70;110491;1243;59297;-64
2023/07/09 06:06:50;;;;;;;5.40;3.20;;;;;;;17.99;76.98;97802.70;110425;1242;58833;-63
2023/07/09 06:09:18;;;;;;;5.30;2.80;;;;;;;17.95;75.18;97806.23;110620;1241;71177;-63
2023/07/09 06:11:46;;;;;;;3.40;2.90;;;;;;;18.06;75.08;97811.16;110588;1242;69919;-63
2023/07/09 06:14:16;;;;;;;3.70;3.00;;;;;;;18.23;75.02;97808.63;110594;1240;69782;-64
2023/07/09 06:16:44;;;;;;;3.40;3.00;;;;;;;18.31;74.80;97807.30;110610;1241;58937;-64
2023/07/09 06:19:12;;;;;;;3.80;3.30;;;;;;;18.43;71.99;97806.48;110554;1238;58896;-63
2023/07/09 06:21:40;;;;;;;3.10;2.80;;;;;;;18.65;73.24;97808.38;110580;1241;71164;-64
2023/07/09 06:24:09;;;;;;;4.50;2.70;;;;;;;18.98;73.13;97808.04;110514;1238;69603;-63
2023/07/09 06:26:37;;;;;;;3.20;2.70;;;;;;;19.42;71.15;97803.56;110609;1243;68993;-63
2023/07/09 06:29:06;;;;;;;3.30;2.50;;;;;;;19.80;66.10;97804.86;110608;1242;59274;-63
2023/07/09 06:31:33;;;;;;;4.10;3.10;;;;;;;19.85;65.17;97800.39;110524;1242;58885;-63
2023/07/09 06:34:04;;;;;;;3.50;2.80;;;;;;;19.99;64.56;97801.82;110611;1238;71021;-63
2023/07/09 06:36:31;;;;;;;3.80;2.60;;;;;;;20.51;63.33;97801.17;110444;1241;69340;-63
2023/07/09 06:38:59;;;;;;;3.40;2.70;;;;;;;20.90;64.54;97794.48;110435;1242;69903;-63
2023/07/09 06:41:27;;;;;;;4.70;3.00;;;;;;;21.05;62.29;97795.50;110440;1243;58887;-64
2023/07/09 06:43:55;;;;;;;3.40;2.90;;;;;;;21.48;60.93;97789.52;110596;1240;58796;-66
2023/07/09 06:46:23;;;;;;;3.10;2.40;;;;;;;21.53;58.96;97787.70;110411;1241;71110;-63
2023/07/09 06:48:51;;;;;;;3.30;2.60;;;;;;;21.80;58.57;97785.20;110469;1241;69315;-64
2023/07/09 06:51:20;;;;;;;4.00;2.70;;;;;;;21.97;57.52;97785.76;110527;1241;70042;-63
2023/07/09 06:53:50;;;;;;;3.30;2.80;;;;;;;22.21;56.63;97783.61;110448;1240;58875;-64
2023/07/09 06:56:17;;;;;;;2.90;2.30;;;;;;;22.37;56.16;97784.98;110593;1241;58920;-64
2023/07/09 06:58:45;;;;;;;3.90;2.70;;;;;;;22.78;55.77;97781.98;110633;1240;71039;-64
2023/07/09 07:01:13;;;;;;;3.70;2.70;;;;;;;23.24;55.36;97775.67;110648;1241;68833;-63
2023/07/09 07:03:41;;;;;;;3.60;2.90;;;;;;;23.62;53.68;97774.42;110624;1242;69835;-63
2023/07/09 07:06:09;;;;;;;2.70;2.40;;;;;;;23.34;51.73;97775.89;110632;1243;58872;-65
2023/07/09 07:08:37;;;;;;;3.70;2.80;;;;;;;23.46;52.35;97776.39;110617;1242;58895;-63
2023/07/09 07:11:06;;;;;;;2.80;2.40;;;;;;;23.35;51.94;97771.81;110625;1241;70891;-64
2023/07/09 07:13:36;;;;;;;2.70;2.30;;;;;;;23.23;52.92;97772.71;110641;1240;69814;-64
2023/07/09 07:16:11;;;;;;;3.50;2.40;;;;;;;23.48;53.94;97773.17;110606;1242;68807;-64
2023/07/09 07:18:40;;;;;;;3.30;2.50;;;;;;;23.94;52.09;97772.23;110635;1238;59025;-62
2023/07/09 07:21:08;;;;;;;4.60;2.80;;;;;;;24.13;50.57;97772.86;110659;1242;58906;-62
2023/07/09 07:23:36;;;;;;;3.10;2.70;;;;;;;24.59;50.04;97776.85;110633;1238;69975;-62
2023/07/09 07:26:04;;;;;;;3.10;2.60;;;;;;;24.45;48.80;97772.81;110656;1240;68413;-63
2023/07/09 07:28:35;;;;;;;3.20;2.50;;;;;;;24.63;49.19;97770.10;110233;1241;69217;-65
2023/07/09 07:31:09;;;;;;;3.70;2.50;;;;;;;24.69;48.13;97770.94;110645;1239;58864;-61
2023/07/09 07:33:40;;;;;;;3.70;2.50;;;;;;;24.68;47.56;97764.80;110593;1242;58863;-60
2023/07/09 07:36:08;;;;;;;3.00;2.20;;;;;;;24.68;46.32;97767.45;110660;1241;70226;-62
2023/07/09 07:38:39;;;;;;;2.50;2.30;;;;;;;25.46;46.31;97758.85;110665;1241;69118;-63
2023/07/09 07:41:08;;;;;;;3.70;2.40;;;;;;;26.03;46.29;97758.39;110561;1239;68823;-62
2023/07/09 07:43:36;;;;;;;3.20;2.50;;;;;;;26.47;44.23;97760.13;110648;1245;58899;-64
2023/07/09 07:46:03;;;;;;;3.30;2.30;;;;;;;26.78;43.36;97760.11;110642;1242;58828;-65
2023/07/09 07:48:32;;;;;;;3.60;2.60;;;;;;;26.82;42.48;97760.33;110639;1242;69936;-65
2023/07/09 07:51:02;;;;;;;2.60;2.10;;;;;;;26.85;42.55;97758.42;110633;1241;69238;-65
2023/07/09 07:53:31;;;;;;;3.60;2.30;;;;;;;27.15;42.70;97754.55;110602;1241;69854;-65
2023/07/09 07:56:02;;;;;;;3.30;2.50;;;;;;;27.29;41.32;97756.20;110571;1238;58878;-65
2023/07/09 07:58:31;;;;;;;2.90;2.60;;;;;;;27.48;40.66;97751.89;110512;1238;58939;-65
2023/07/09 08:00:59;;;;;;;3.40;2.60;;;;;;;26.80;42.07;97754.48;110592;1241;71189;-66
2023/07/09 08:03:27;;;;;;;3.20;2.50;;;;;;;26.55;41.36;97753.80;110586;1242;69743;-65
2023/07/09 08:05:55;;;;;;;6.60;3.20;;;;;;;26.36;42.83;97750.52;110384;1242;69867;-66
2023/07/09 08:08:24;;;;;;;3.40;2.80;;;;;;;26.66;43.07;97751.15;110369;1241;58860;-66
2023/07/09 08:11:01;;;;;;;4.10;2.70;;;;;;;26.54;43.40;97748.03;110402;1241;58853;-66
2023/07/09 08:13:28;;;;;;;3.50;2.90;;;;;;;26.15;45.13;97745.65;110439;1238;71210;-64
2023/07/09 08:15:56;;;;;;;4.10;2.90;;;;;;;25.52;45.78;97747.72;110525;1242;69816;-64
2023/07/09 08:18:23;;;;;;;4.00;3.30;;;;;;;25.88;44.73;97743.38;110499;1242;68692;-63
2023/07/09 08:20:51;;;;;;;4.40;3.20;;;;;;;25.82;46.11;97743.69;110512;1242;58933;-64
2023/07/09 08:23:19;;;;;;;3.90;3.40;;;;;;;26.34;45.31;97743.64;110545;1241;58861;-64
2023/07/09 08:26:05;;;;;;;3.20;2.70;;;;;;;26.58;44.92;97740.55;110575;1238;71027;-64
2023/07/09 08:28:34;;;;;;;3.30;2.90;;;;;;;26.74;44.01;97741.00;110568;1241;69884;-64
2023/07/09 08:31:02;;;;;;;3.40;2.70;;;;;;;26.81;44.76;97736.23;110527;1243;69824;-65
2023/07/09 08:33:31;;;;;;;4.30;3.20;;;;;;;27.07;43.33;97731.70;110511;1238;58888;-65
2023/07/09 08:35:58;;;;;;;3.50;3.20;;;;;;;26.59;43.88;97728.13;110625;1241;58931;-65
2023/07/09 08:38:26;;;;;;;3.30;2.40;;;;;;;27.12;43.76;97728.17;110640;1241;71099;-65
2023/07/09 08:40:57;;;;;;;4.40;2.80;;;;;;;27.53;44.34;97729.73;110285;1238;70070;-66
2023/07/09 08:43:58;;;;;;;4.30;2.90;;;;;;;27.70;42.75;97733.42;110620;1244;69291;-66
2023/07/09 08:46:33;;;;;;;3.80;2.90;;;;;;;28.22;40.93;97734.98;110636;1242;58934;-66
2023/07/09 08:49:03;;;;;;;2.70;2.30;;;;;;;28.54;41.20;97732.00;110505;1242;58868;-65
2023/07/09 08:51:39;;;;;;;2.90;2.60;;;;;;;28.80;39.16;97729.41;110473;1241;71104;-65
2023/07/09 08:54:20;;;;;;;3.30;2.30;;;;;;;27.73;39.93;97726.45;110589;1243;69799;-65
2023/07/09 08:56:49;;;;;;;3.80;2.50;;;;;;;28.39;39.84;97729.99;110261;1242;69793;-66
2023/07/09 08:59:19;;;;;;;2.10;1.90;;;;;;;28.84;39.68;97727.92;110600;1238;58860;-66
2023/07/09 09:01:52;;;;;;;3.50;2.50;;;;;;;29.36;38.41;97727.52;110631;1239;58905;-66
2023/07/09 09:04:24;;;;;;;2.80;2.10;;;;;;;29.73;38.36;97724.49;110631;1241;71227;-66
2023/07/09 09:06:59;;;;;;;2.70;1.90;;;;;;;30.07;36.96;97722.84;110660;1242;69188;-66
2023/07/09 09:09:35;;;;;;;3.70;2.40;;;;;;;30.45;37.27;97723.65;110621;1240;69824;-65
2023/07/09 09:12:15;;;;;;;2.80;2.40;;;;;;;30.53;35.70;97722.73;110632;1241;58924;-65
2023/07/09 09:14:56;;;;;;;3.70;2.80;;;;;;;30.59;37.38;97725.21;110641;1241;58815;-65
2023/07/09 09:17:28;;;;;;;4.50;3.30;;;;;;;30.67;35.57;97720.73;110643;1243;71036;-66
2023/07/09 09:20:06;;;;;;;4.00;2.80;;;;;;;30.22;35.59;97717.53;110483;1243;69714;-65
2023/07/09 09:22:46;;;;;;;2.50;2.30;;;;;;;29.60;36.75;97715.38;110406;1243;69977;-65
2023/07/09 09:25:27;;;;;;;4.00;2.30;;;;;;;30.26;37.08;97714.34;110554;1241;58931;-65
2023/07/09 09:27:55;;;;;;;3.20;2.60;;;;;;;30.81;35.59;97717.09;110553;1241;59762;-65
2023/07/09 09:30:24;;;;;;;3.00;2.00;;;;;;;30.84;34.98;97716.88;110620;1241;71059;-65
2023/07/09 09:32:59;;;;;;;2.90;2.60;;;;;;;31.34;35.37;97714.72;110651;1243;69303;-65
2023/07/09 09:35:33;;;;;;;3.10;2.20;;;;;;;31.67;34.15;97711.03;110645;1241;69281;-65
2023/07/09 09:38:03;;;;;;;2.70;2.10;;;;;;;31.77;33.73;97712.10;110647;1242;58893;-65
2023/07/09 09:40:35;;;;;;;2.90;2.40;;;;;;;32.06;34.09;97713.70;110626;1242;58857;-65
2023/07/09 09:43:10;;;;;;;2.60;2.10;;;;;;;32.32;32.88;97712.73;110633;1241;70010;-65
2023/07/09 09:45:39;;;;;;;2.60;2.20;;;;;;;32.03;32.14;97710.23;110624;1238;69681;-65
2023/07/09 09:48:31;;;;;;;3.50;3.00;;;;;;;31.94;33.28;97711.76;110612;1242;69739;-66
2023/07/09 09:51:04;;;;;;;3.40;2.40;;;;;;;32.18;33.01;97704.85;110558;1241;58908;-65
2023/07/09 09:53:44;;;;;;;4.50;2.60;;;;;;;32.13;32.61;97707.02;110647;1242;58872;-65
2023/07/09 09:56:33;;;;;;;3.00;2.20;;;;;;;32.11;32.60;97710.77;110554;1243;71096;-65
2023/07/09 09:59:01;;;;;;;;;;;;;;;32.16;31.90;97701.90;110598;1242;69288;-66
2023/07/09 10:01:34;;;;;;;3.70;2.50;;;;;;;32.08;31.23;97701.31;110487;1242;69201;-65
2023/07/09 10:04:04;;;;;;;3.40;2.60;;;;;;;32.01;30.74;97695.45;110563;1241;58944;-65
2023/07/09 10:06:42;;;;;;;2.80;2.40;;;;;;;31.87;31.37;97697.00;110597;1243;58925;-65
2023/07/09 10:09:21;;;;;;;2.30;2.10;;;;;;;31.69;32.76;97692.14;110597;1243;71185;-65
2023/07/09 10:12:04;;;;;;;2.40;2.10;;;;;;;31.67;31.84;97690.55;110606;1242;69834;-65
2023/07/09 10:14:37;;;;;;;2.20;2.00;;;;;;;31.58;32.77;97688.33;110574;1241;69774;-64
2023/07/09 10:17:38;;;;;;;3.20;2.70;;;;;;;31.54;32.73;97689.15;110647;1241;59259;-65
2023/07/09 10:20:17;;;;;;;3.60;2.30;;;;;;;31.43;31.92;97679.03;110415;1242;58888;-65
2023/07/09 10:22:52;;;;;;;5.40;2.70;;;;;;;31.26;32.43;97679.89;110593;1239;71142;-65
2023/07/09 10:25:42;;;;;;;3.20;2.50;;;;;;;31.14;33.37;97679.27;110586;1238;69651;-65
2023/07/09 10:28:26;;;;;;;2.50;2.30;;;;;;;31.04;33.08;97678.13;110632;1238;68562;-65
2023/07/09 10:31:11;;;;;;;3.80;2.90;;;;;;;30.98;33.39;97675.70;110628;1241;58857;-65
2023/07/09 10:34:03;;;;;;;2.50;2.30;;;;;;;30.63;33.68;97679.02;110563;1240;58879;-66
2023/07/09 10:36:44;;;;;;;3.90;2.50;;;;;;;30.35;34.33;97680.77;110263;1242;71034;-65
2023/07/09 10:39:18;;;;;;;3.30;2.40;;;;;;;30.35;33.96;97678.66;110575;1241;70418;-65
2023/07/09 10:41:50;;;;;;;3.10;2.20;;;;;;;30.48;34.75;97676.13;110641;1242;69238;-65
2023/07/09 10:44:24;;;;;;;2.70;2.00;;;;;;;30.59;32.79;97675.52;110611;1239;58996;-65
2023/07/09 10:47:01;;;;;;;3.70;2.60;;;;;;;30.56;32.85;97678.05;110578;1243;58833;-65
2023/07/09 10:49:36;;;;;;;3.70;2.10;;;;;;;30.65;33.52;97673.77;110630;1239;70894;-67
2023/07/09 10:52:31;;;;;;;3.00;2.50;;;;;;;30.73;33.20;97668.96;110505;1241;68196;-66
2023/07/09 10:55:16;;;;;;;3.20;2.90;;;;;;;30.69;33.01;97664.61;110374;1242;69911;-64
2023/07/09 10:57:57;;;;;;;2.50;2.30;;;;;;;30.71;32.89;97663.10;110552;1239;58930;-65
2023/07/09 11:00:40;;;;;;;3.20;2.40;;;;;;;30.64;32.49;97667.46;110665;1239;58937;-64
2023/07/09 11:03:20;;;;;;;2.60;2.40;;;;;;;30.63;32.39;97668.77;110672;1242;71050;-65
2023/07/09 11:05:50;;;;;;;4.90;3.30;;;;;;;30.69;32.93;97665.20;110629;1238;69633;-63
2023/07/09 11:08:24;;;;;;;2.60;2.20;;;;;;;30.82;32.71;97667.52;110291;1242;69230;-64
2023/07/09 11:11:07;;;;;;;3.10;2.30;;;;;;;30.65;31.58;97666.34;110665;1245;59002;-65
2023/07/09 11:13:35;;;;;;;2.60;2.30;;;;;;;30.93;33.23;97662.98;110630;1242;58875;-64
2023/07/09 11:16:18;;;;;;;2.70;2.10;;;;;;;31.15;33.12;97657.66;110665;1239;70995;-65
2023/07/09 11:18:56;;;;;;;4.30;2.70;;;;;;;31.27;32.80;97657.23;110622;1241;69847;-65
2023/07/09 11:21:24;;;;;;;3.10;2.50;;;;;;;31.14;32.15;97657.94;110556;1243;69390;-65
2023/07/09 11:23:53;;;;;;;3.00;2.70;;;;;;;30.93;32.80;97658.27;110541;1243;58926;-65
2023/07/09 11:26:30;;;;;;;2.70;2.40;;;;;;;30.97;33.38;97661.16;110531;1241;58884;-69
2023/07/09 11:29:07;;;;;;;3.00;2.30;;;;;;;30.96;32.13;97658.77;110425;1241;70630;-66
2023/07/09 11:31:36;;;;;;;3.60;2.80;;;;;;;30.96;34.07;97656.89;110345;1243;69739;-66
2023/07/09 11:34:09;;;;;;;2.40;2.20;;;;;;;31.00;33.53;97652.77;110337;1242;69199;-66
2023/07/09 11:36:55;;;;;;;3.30;2.30;;;;;;;30.94;33.74;97654.89;110558;1238;58925;-64
2023/07/09 11:39:27;;;;;;;2.80;2.30;;;;;;;31.14;33.71;97652.95;110369;1241;58880;-66
2023/07/09 11:41:55;;;;;;;2.60;2.30;;;;;;;31.34;33.73;97650.20;110399;1242;71474;-66
2023/07/09 11:44:29;;;;;;;2.60;2.30;;;;;;;31.40;33.04;97647.67;110503;1241;67381;-67
2023/07/09 11:47:21;;;;;;;3.10;2.70;;;;;;;31.39;33.67;97648.77;110479;1242;69815;-65